createdAt,value
2023-03-12T00:01:33.511Z,63.50
2023-03-12T00:04:05.207Z,64.13
2023-03-12T00:06:34.778Z,63.66
2023-03-12T00:09:06.373Z,63.93
2023-03-12T00:11:35.972Z,63.96
2023-03-12T00:14:05.393Z,63.67
2023-03-12T00:16:34.897Z,63.00
2023-03-12T00:19:04.389Z,62.64
2023-03-12T00:21:33.855Z,63.17
2023-03-12T00:24:04.755Z,62.20
2023-03-12T00:26:34.212Z,61.92
2023-03-12T00:29:03.596Z,62.19
2023-03-12T00:31:35.077Z,63.53
2023-03-12T00:34:05.417Z,62.23
2023-03-12T00:36:35.495Z,60.26
2023-03-12T00:39:06.517Z,61.46
2023-03-12T00:41:35.983Z,62.00
2023-03-12T00:44:05.330Z,60.40
2023-03-12T00:46:34.681Z,60.91
2023-03-12T00:50:26.568Z,61.19
2023-03-12T00:52:55.979Z,59.60
2023-03-12T00:55:25.213Z,59.58
2023-03-12T00:57:54.576Z,59.03
2023-03-12T01:00:24.833Z,58.65
2023-03-12T01:02:54.213Z,58.60
2023-03-12T01:05:25.487Z,59.07
2023-03-12T01:07:54.872Z,57.69
2023-03-12T01:10:24.925Z,57.52
2023-03-12T01:12:54.418Z,58.30
2023-03-12T01:15:24.243Z,58.79
2023-03-12T01:17:53.696Z,58.88
2023-03-12T01:20:23.559Z,58.09
2023-03-12T01:22:55.018Z,56.73
2023-03-12T01:25:24.376Z,56.49
2023-03-12T01:27:53.787Z,57.21
2023-03-12T01:30:24.512Z,56.11
2023-03-12T01:32:54.625Z,57.07
2023-03-12T01:35:24.091Z,57.09
2023-03-12T01:37:56.189Z,57.98
2023-03-12T01:40:29.141Z,56.20
2023-03-12T01:43:00.244Z,52.23
2023-03-12T01:46:16.015Z,56.60
2023-03-12T01:48:49.611Z,55.31
2023-03-12T01:51:21.357Z,56.61
2023-03-12T01:53:56.746Z,56.62
2023-03-12T01:56:31.987Z,55.54
2023-03-12T01:59:08.438Z,56.03
2023-03-12T02:01:38.788Z,56.40
2023-03-12T02:04:08.466Z,56.03
2023-03-12T02:06:45.164Z,56.09
2023-03-12T02:09:19.746Z,54.42
2023-03-12T02:11:49.493Z,55.75
2023-03-12T02:14:19.287Z,55.37
2023-03-12T02:16:48.883Z,55.17
2023-03-12T02:19:27.810Z,55.20
2023-03-12T02:21:57.524Z,54.62
2023-03-12T02:24:35.684Z,55.76
2023-03-12T02:27:08.889Z,55.63
2023-03-12T02:29:43.068Z,56.55
2023-03-12T02:32:23.108Z,56.15
2023-03-12T02:34:52.604Z,55.39
2023-03-12T02:37:22.749Z,56.73
2023-03-12T02:40:02.261Z,56.93
2023-03-12T02:42:33.295Z,57.37
2023-03-12T02:45:04.210Z,56.96
2023-03-12T02:47:33.550Z,57.77
2023-03-12T02:50:02.943Z,55.96
2023-03-12T02:52:35.794Z,56.16
2023-03-12T02:55:06.646Z,56.54
2023-03-12T02:57:37.915Z,54.99
2023-03-12T03:00:12.217Z,56.52
2023-03-12T03:02:42.156Z,57.20
2023-03-12T03:05:13.896Z,56.59
2023-03-12T03:07:43.346Z,56.57
2023-03-12T03:10:15.765Z,55.80
2023-03-12T03:12:46.949Z,56.11
2023-03-12T03:15:16.371Z,56.80
2023-03-12T03:17:45.697Z,57.26
2023-03-12T03:20:15.409Z,56.99
2023-03-12T03:22:44.932Z,57.53
2023-03-12T03:25:14.164Z,57.33
2023-03-12T03:27:44.912Z,56.43
2023-03-12T03:30:15.390Z,56.01
2023-03-12T03:32:44.832Z,55.12
2023-03-12T03:35:14.672Z,55.62
2023-03-12T03:37:43.943Z,56.34
2023-03-12T03:40:14.692Z,56.56
2023-03-12T03:42:45.550Z,56.52
2023-03-12T03:45:14.962Z,56.17
2023-03-12T03:47:45.114Z,55.61
2023-03-12T03:51:26.431Z,56.06
2023-03-12T03:53:55.927Z,55.81
2023-03-12T03:56:25.330Z,55.88
2023-03-12T03:58:55.056Z,56.79
2023-03-12T04:01:24.552Z,54.77
2023-03-12T04:03:53.873Z,55.33
2023-03-12T04:06:24.607Z,56.96
2023-03-12T04:08:54.058Z,57.14
2023-03-12T04:11:24.209Z,56.26
2023-03-12T04:13:53.633Z,56.45
2023-03-12T04:16:23.095Z,56.82
2023-03-12T04:18:52.604Z,57.61
2023-03-12T04:21:22.046Z,56.77
2023-03-12T04:23:52.852Z,56.68
2023-03-12T04:26:22.155Z,56.62
2023-03-12T04:28:51.558Z,55.85
2023-03-12T04:31:20.996Z,56.03
2023-03-12T04:33:50.401Z,56.15
2023-03-12T04:36:19.798Z,56.94
2023-03-12T04:38:49.270Z,56.37
2023-03-12T04:41:20.416Z,56.33
2023-03-12T04:43:49.729Z,56.45
2023-03-12T04:46:19.315Z,57.15
2023-03-12T04:48:48.767Z,57.48
2023-03-12T04:51:18.273Z,57.18
2023-03-12T04:53:47.926Z,56.90
2023-03-12T04:56:18.865Z,57.83
2023-03-12T04:58:48.312Z,57.55
2023-03-12T05:01:27.083Z,58.82
2023-03-12T05:03:57.090Z,57.58
2023-03-12T05:06:27.638Z,57.54
2023-03-12T05:08:56.958Z,57.25
2023-03-12T05:11:28.089Z,57.55
2023-03-12T05:13:57.870Z,57.96
2023-03-12T05:16:28.070Z,57.99
2023-03-12T05:18:57.452Z,57.17
2023-03-12T05:21:26.854Z,57.55
2023-03-12T05:23:56.541Z,58.06
2023-03-12T05:26:29.613Z,57.32
2023-03-12T05:28:59.248Z,58.74
2023-03-12T05:31:33.242Z,58.67
2023-03-12T05:34:02.949Z,58.38
2023-03-12T05:36:32.488Z,57.28
2023-03-12T05:39:01.957Z,57.20
2023-03-12T05:41:33.101Z,56.28
2023-03-12T05:44:02.556Z,56.65
2023-03-12T05:46:31.896Z,56.77
2023-03-12T05:49:01.212Z,56.01
2023-03-12T05:51:30.549Z,56.08
2023-03-12T05:54:00.083Z,56.74
2023-03-12T05:56:29.877Z,56.50
2023-03-12T05:59:00.741Z,54.63
2023-03-12T06:01:31.543Z,54.01
2023-03-12T06:04:00.928Z,55.16
2023-03-12T06:06:32.897Z,53.45
2023-03-12T06:09:02.398Z,52.63
2023-03-12T06:11:32.423Z,53.41
2023-03-12T06:14:03.333Z,53.94
2023-03-12T06:16:33.130Z,54.55
2023-03-12T06:19:05.597Z,54.80
2023-03-12T06:21:36.841Z,55.66
2023-03-12T06:24:07.233Z,55.54
2023-03-12T06:26:36.550Z,54.89
2023-03-12T06:29:07.311Z,53.70
2023-03-12T06:31:38.869Z,54.20
2023-03-12T06:34:08.513Z,54.86
2023-03-12T06:36:38.064Z,54.44
2023-03-12T06:39:09.007Z,52.71
2023-03-12T06:41:38.569Z,51.56
2023-03-12T06:44:09.475Z,52.12
2023-03-12T06:46:39.256Z,52.77
2023-03-12T06:51:26.587Z,49.90
2023-03-12T06:53:55.993Z,49.62
2023-03-12T06:56:25.367Z,51.25
2023-03-12T06:58:54.712Z,49.56
2023-03-12T07:01:24.555Z,50.95
2023-03-12T07:03:53.990Z,49.45
2023-03-12T07:06:26.337Z,47.34
2023-03-12T07:08:55.790Z,50.31
2023-03-12T07:11:25.192Z,47.68
2023-03-12T07:13:54.629Z,49.48
2023-03-12T07:16:24.101Z,49.13
2023-03-12T07:18:53.453Z,48.34
2023-03-12T07:21:24.343Z,46.88
2023-03-12T07:23:54.497Z,46.76
2023-03-12T07:26:24.595Z,48.56
2023-03-12T07:28:53.994Z,47.10
2023-03-12T07:31:23.385Z,48.26
2023-03-12T07:33:52.911Z,47.08
2023-03-12T07:36:22.517Z,48.46
2023-03-12T07:38:54.805Z,47.19
2023-03-12T07:41:24.399Z,48.59
2023-03-12T07:43:53.835Z,47.17
2023-03-12T07:46:23.329Z,47.57
2023-03-12T07:48:53.113Z,47.53
2023-03-12T07:51:22.496Z,45.47
2023-03-12T07:53:53.416Z,46.46
2023-03-12T07:56:23.857Z,45.82
2023-03-12T07:58:53.577Z,45.79
2023-03-12T08:01:25.587Z,45.90
2023-03-12T08:03:55.088Z,46.02
2023-03-12T08:06:24.726Z,46.60
2023-03-12T08:08:55.771Z,45.49
2023-03-12T08:11:25.150Z,46.42
2023-03-12T08:13:54.395Z,44.63
2023-03-12T08:16:23.784Z,45.55
2023-03-12T08:18:53.155Z,45.60
2023-03-12T08:21:22.714Z,46.62
2023-03-12T08:23:53.750Z,45.75
2023-03-12T08:26:23.143Z,43.89
2023-03-12T08:28:52.367Z,44.16
2023-03-12T08:31:21.687Z,44.32
2023-03-12T08:33:50.980Z,45.80
2023-03-12T08:36:22.393Z,43.67
2023-03-12T08:38:53.430Z,43.64
2023-03-12T08:41:23.105Z,45.09
2023-03-12T08:43:52.574Z,45.30
2023-03-12T08:46:22.054Z,44.49
2023-03-12T08:48:51.609Z,44.08
2023-03-12T08:51:20.936Z,44.12
2023-03-12T08:53:50.338Z,42.69
2023-03-12T08:56:21.111Z,43.34
2023-03-12T08:58:50.514Z,43.65
2023-03-12T09:01:19.792Z,42.74
2023-03-12T09:03:51.233Z,42.13
2023-03-12T09:06:20.966Z,42.28
2023-03-12T09:08:51.832Z,42.53
2023-03-12T09:11:22.682Z,42.83
2023-03-12T09:14:24.654Z,40.16
2023-03-12T09:16:41.637Z,42.60
2023-03-12T09:19:11.100Z,41.86
2023-03-12T09:21:41.380Z,43.11
2023-03-12T09:24:11.452Z,41.49
2023-03-12T09:26:42.531Z,42.16
2023-03-12T09:29:11.933Z,42.29
2023-03-12T09:31:41.254Z,45.94
2023-03-12T09:34:10.687Z,41.82
2023-03-12T09:36:40.076Z,41.99
2023-03-12T09:39:09.515Z,41.54
2023-03-12T09:41:44.008Z,39.52
2023-03-12T09:44:22.305Z,41.54
2023-03-12T09:46:56.266Z,40.76
2023-03-12T09:51:33.455Z,38.44
2023-03-12T09:54:06.540Z,41.21
2023-03-12T09:56:37.218Z,39.19
2023-03-12T09:59:06.767Z,41.88
2023-03-12T10:01:42.569Z,39.15
2023-03-12T10:04:56.272Z,42.14
2023-03-12T10:07:36.224Z,39.59
2023-03-12T10:10:32.552Z,41.11
2023-03-12T10:13:23.371Z,41.97
2023-03-12T10:16:12.603Z,38.34
2023-03-12T10:19:00.710Z,39.80
2023-03-12T10:21:37.854Z,39.43
2023-03-12T10:24:25.457Z,40.37
2023-03-12T10:26:58.890Z,40.95
2023-03-12T10:29:31.867Z,42.01
2023-03-12T10:32:06.226Z,42.01
2023-03-12T10:34:41.662Z,42.34
2023-03-12T10:37:19.727Z,42.46
2023-03-12T10:39:51.127Z,42.21
2023-03-12T10:42:23.376Z,42.90
2023-03-12T10:44:57.971Z,42.29
2023-03-12T10:47:38.695Z,41.25
2023-03-12T10:50:19.612Z,42.33
2023-03-12T10:52:51.117Z,41.88
2023-03-12T10:55:29.658Z,41.40
2023-03-12T10:57:59.865Z,39.21
2023-03-12T11:00:32.565Z,40.98
2023-03-12T11:03:03.888Z,40.73
2023-03-12T11:05:35.908Z,37.81
2023-03-12T11:08:15.049Z,40.80
2023-03-12T11:10:49.145Z,40.91
2023-03-12T11:13:32.403Z,40.49
2023-03-12T11:16:04.125Z,41.19
2023-03-12T11:18:36.810Z,41.57
2023-03-12T11:21:22.076Z,39.11
2023-03-12T11:24:11.327Z,37.92
2023-03-12T11:26:51.673Z,41.71
2023-03-12T11:29:30.127Z,40.01
2023-03-12T11:32:08.095Z,41.53
2023-03-12T11:34:40.518Z,38.29
2023-03-12T11:37:17.613Z,39.26
2023-03-12T11:40:12.199Z,40.02
2023-03-12T11:43:02.271Z,39.10
2023-03-12T11:45:43.815Z,39.68
2023-03-12T11:48:24.552Z,37.98
2023-03-12T11:51:14.072Z,38.03
2023-03-12T11:54:08.186Z,38.57
2023-03-12T11:56:42.362Z,38.57
2023-03-12T11:59:33.220Z,40.29
2023-03-12T12:02:32.792Z,37.90
2023-03-12T12:05:29.166Z,39.30
2023-03-12T12:08:19.252Z,37.98
2023-03-12T12:11:01.864Z,38.61
2023-03-12T12:13:45.859Z,40.15
2023-03-12T12:16:39.686Z,38.41
2023-03-12T12:19:25.104Z,38.77
2023-03-12T12:22:24.482Z,37.36
2023-03-12T12:25:26.066Z,36.46
2023-03-12T12:28:14.749Z,36.60
2023-03-12T12:31:04.594Z,37.75
2023-03-12T12:34:01.332Z,37.65
2023-03-12T12:36:36.447Z,37.02
2023-03-12T12:39:10.956Z,36.56
2023-03-12T12:41:46.236Z,37.07
2023-03-12T12:44:19.334Z,35.87
2023-03-12T12:46:54.111Z,37.12
2023-03-12T12:51:34.060Z,36.68
2023-03-12T12:54:09.888Z,36.17
2023-03-12T12:56:47.667Z,36.96
2023-03-12T12:59:34.827Z,37.17
2023-03-12T13:02:13.407Z,36.71
2023-03-12T13:04:43.695Z,37.15
2023-03-12T13:07:35.669Z,37.36
2023-03-12T13:10:10.802Z,37.84
2023-03-12T13:12:51.790Z,37.49
2023-03-12T13:15:44.106Z,36.65
2023-03-12T13:18:26.610Z,36.85
2023-03-12T13:21:21.354Z,36.76
2023-03-12T13:24:06.817Z,36.57
2023-03-12T13:26:54.778Z,37.39
2023-03-12T13:29:39.146Z,37.35
2023-03-12T13:32:12.636Z,37.78
2023-03-12T13:34:47.647Z,36.23
2023-03-12T13:37:49.504Z,37.30
2023-03-12T13:41:03.677Z,39.34
2023-03-12T13:43:57.954Z,39.20
2023-03-12T13:46:47.302Z,38.28
2023-03-12T13:49:20.426Z,39.36
2023-03-12T13:52:13.395Z,40.24
2023-03-12T13:54:47.221Z,40.73
2023-03-12T13:57:32.760Z,41.03
2023-03-12T14:00:02.592Z,39.63
2023-03-12T14:02:36.230Z,40.72
2023-03-12T14:05:09.819Z,42.29
2023-03-12T14:08:07.184Z,41.72
2023-03-12T14:10:52.236Z,45.12
2023-03-12T14:13:41.527Z,43.91
2023-03-12T14:16:21.018Z,42.21
2023-03-12T14:18:53.775Z,42.64
2023-03-12T14:21:26.519Z,42.10
2023-03-12T14:23:59.355Z,42.59
2023-03-12T14:26:32.336Z,43.49
2023-03-12T14:29:08.125Z,43.94
2023-03-12T14:31:39.222Z,43.54
2023-03-12T14:34:16.813Z,44.93
2023-03-12T14:36:52.093Z,44.03
2023-03-12T14:39:30.593Z,44.66
2023-03-12T14:42:05.122Z,44.44
2023-03-12T14:44:38.016Z,44.69
2023-03-12T14:47:10.503Z,45.27
2023-03-12T14:49:44.874Z,45.74
2023-03-12T14:52:15.245Z,44.90
2023-03-12T14:54:58.153Z,45.91
2023-03-12T14:57:27.453Z,46.27
2023-03-12T15:00:00.404Z,46.00
2023-03-12T15:02:33.094Z,46.48
2023-03-12T15:05:04.702Z,45.78
2023-03-12T15:07:39.773Z,45.53
2023-03-12T15:10:20.855Z,45.90
2023-03-12T15:12:50.636Z,46.04
2023-03-12T15:15:37.479Z,46.91
2023-03-12T15:18:10.230Z,44.47
2023-03-12T15:20:39.754Z,46.54
2023-03-12T15:23:11.718Z,46.41
2023-03-12T15:25:41.849Z,46.76
2023-03-12T15:28:29.862Z,47.23
2023-03-12T15:31:17.000Z,46.76
2023-03-12T15:33:47.209Z,46.69
2023-03-12T15:36:35.274Z,47.57
2023-03-12T15:39:26.709Z,46.60
2023-03-12T15:41:57.158Z,47.40
2023-03-12T15:44:28.978Z,47.90
2023-03-12T15:47:08.145Z,47.70
2023-03-12T15:51:36.239Z,48.08
2023-03-12T15:54:22.024Z,48.08
2023-03-12T15:56:51.580Z,47.44
2023-03-12T15:59:28.294Z,49.79
2023-03-12T16:01:58.919Z,49.75
2023-03-12T16:04:28.352Z,48.82
2023-03-12T16:07:00.831Z,48.34
2023-03-12T16:09:35.173Z,49.37
2023-03-12T16:12:05.174Z,49.38
2023-03-12T16:14:37.341Z,50.17
2023-03-12T16:17:07.521Z,50.12
2023-03-12T16:19:37.003Z,49.70
2023-03-12T16:22:07.994Z,50.14
2023-03-12T16:24:37.317Z,51.04
2023-03-12T16:27:07.384Z,51.48
2023-03-12T16:29:39.701Z,51.52
2023-03-12T16:32:15.056Z,53.01
2023-03-12T16:34:45.032Z,53.30
2023-03-12T16:37:16.340Z,53.52
2023-03-12T16:39:46.675Z,52.84
2023-03-12T16:42:19.202Z,53.10
2023-03-12T16:44:49.393Z,53.06
2023-03-12T16:47:18.748Z,54.64
2023-03-12T16:49:48.148Z,54.92
2023-03-12T16:52:21.819Z,55.43
2023-03-12T16:54:52.380Z,54.39
2023-03-12T16:57:28.531Z,55.10
2023-03-12T16:59:57.988Z,53.00
2023-03-12T17:02:28.628Z,52.58
2023-03-12T17:04:58.042Z,53.89
2023-03-12T17:07:29.466Z,54.40
2023-03-12T17:09:58.869Z,54.02
2023-03-12T17:12:33.011Z,55.47
2023-03-12T17:15:05.097Z,56.52
2023-03-12T17:17:34.411Z,56.24
2023-03-12T17:20:08.112Z,55.58
2023-03-12T17:22:39.332Z,56.29
2023-03-12T17:25:12.617Z,56.84
2023-03-12T17:27:41.815Z,58.17
2023-03-12T17:30:13.651Z,57.29
2023-03-12T17:32:43.057Z,57.48
2023-03-12T17:35:12.961Z,57.46
2023-03-12T17:37:43.635Z,58.10
2023-03-12T17:40:14.690Z,59.01
2023-03-12T17:42:44.147Z,58.89
2023-03-12T17:45:13.846Z,59.02
2023-03-12T17:47:43.275Z,59.28
2023-03-12T17:50:14.427Z,59.74
2023-03-12T17:52:45.414Z,59.87
2023-03-12T17:55:14.968Z,60.35
2023-03-12T17:57:44.907Z,59.33
2023-03-12T18:00:16.086Z,60.02
2023-03-12T18:02:45.958Z,60.72
2023-03-12T18:05:15.423Z,61.00
2023-03-12T18:07:47.405Z,61.58
2023-03-12T18:10:17.228Z,61.88
2023-03-12T18:12:46.650Z,62.08
2023-03-12T18:15:17.122Z,62.41
2023-03-12T18:17:49.850Z,62.30
2023-03-12T18:20:28.793Z,61.44
2023-03-12T18:23:03.021Z,61.82
2023-03-12T18:25:32.416Z,61.95
2023-03-12T18:28:01.705Z,63.20
2023-03-12T18:30:31.179Z,62.90
2023-03-12T18:33:01.109Z,62.36
2023-03-12T18:35:30.669Z,61.52
2023-03-12T18:38:02.013Z,61.75
2023-03-12T18:40:33.233Z,61.82
2023-03-12T18:43:03.348Z,61.28
2023-03-12T18:45:33.001Z,61.97
2023-03-12T18:51:25.841Z,62.52
2023-03-12T18:53:55.092Z,60.74
2023-03-12T18:56:28.113Z,60.22
2023-03-12T18:58:57.605Z,60.12
2023-03-12T19:01:27.045Z,59.88
2023-03-12T19:03:56.417Z,59.55
2023-03-12T19:06:28.373Z,59.72
2023-03-12T19:08:58.928Z,59.29
2023-03-12T19:11:28.273Z,59.55
2023-03-12T19:13:57.690Z,59.35
2023-03-12T19:16:27.779Z,59.09
2023-03-12T19:18:57.241Z,58.35
2023-03-12T19:21:28.145Z,59.16
2023-03-12T19:23:58.193Z,59.35
2023-03-12T19:26:27.601Z,58.08
2023-03-12T19:28:56.948Z,57.80
2023-03-12T19:31:26.646Z,57.73
2023-03-12T19:33:56.070Z,57.50
2023-03-12T19:36:26.892Z,57.63
2023-03-12T19:38:56.199Z,57.64
2023-03-12T19:41:25.714Z,57.45
2023-03-12T19:43:54.961Z,57.12
2023-03-12T19:46:24.270Z,56.59
2023-03-12T19:48:53.634Z,56.48
2023-03-12T19:51:22.944Z,57.19
2023-03-12T19:53:53.612Z,57.00
2023-03-12T19:56:22.992Z,56.03
2023-03-12T19:58:53.444Z,56.42
2023-03-12T20:01:23.219Z,55.96
2023-03-12T20:03:52.614Z,56.14
2023-03-12T20:06:22.076Z,57.24
2023-03-12T20:08:52.843Z,57.74
2023-03-12T20:11:22.197Z,58.80
2023-03-12T20:13:51.548Z,58.74
2023-03-12T20:16:21.020Z,59.49
2023-03-12T20:18:50.388Z,57.34
2023-03-12T20:21:19.784Z,57.66
2023-03-12T20:23:49.029Z,57.70
2023-03-12T20:26:19.888Z,59.40
2023-03-12T20:28:49.845Z,61.17
2023-03-12T20:31:19.895Z,61.16
2023-03-12T20:33:49.365Z,60.62
2023-03-12T20:36:18.722Z,61.05
2023-03-12T20:38:50.844Z,61.51
2023-03-12T20:41:21.641Z,62.20
2023-03-12T20:43:50.877Z,62.16
2023-03-12T20:46:20.542Z,62.37
2023-03-12T20:48:49.967Z,62.29
2023-03-12T20:51:19.427Z,62.40
2023-03-12T20:53:48.689Z,62.50
2023-03-12T20:56:18.076Z,62.84
2023-03-12T20:58:50.009Z,61.94
2023-03-12T21:01:19.472Z,63.29
2023-03-12T21:03:48.947Z,62.66
2023-03-12T21:06:18.417Z,62.57
2023-03-12T21:08:47.758Z,62.05
2023-03-12T21:11:17.026Z,61.53
2023-03-12T21:13:46.249Z,62.06
2023-03-12T21:16:17.150Z,62.13
2023-03-12T21:18:46.518Z,62.61
2023-03-12T21:21:16.020Z,62.52
2023-03-12T21:23:45.725Z,63.26
2023-03-12T21:26:15.032Z,62.96
2023-03-12T21:28:44.395Z,63.13
2023-03-12T21:31:19.072Z,62.42
2023-03-12T21:33:49.519Z,62.93
2023-03-12T21:36:18.945Z,62.62
2023-03-12T21:38:48.455Z,63.19
2023-03-12T21:41:19.808Z,63.78
2023-03-12T21:43:49.975Z,64.01
2023-03-12T21:46:24.899Z,64.82
2023-03-12T21:51:26.315Z,66.02
2023-03-12T21:53:56.654Z,65.46
2023-03-12T21:56:28.341Z,65.54
2023-03-12T21:58:59.306Z,65.94
2023-03-12T22:01:28.971Z,65.79
2023-03-12T22:04:01.314Z,65.52
2023-03-12T22:06:32.063Z,66.03
2023-03-12T22:09:01.490Z,66.20
2023-03-12T22:11:30.753Z,66.83
2023-03-12T22:14:00.140Z,68.18
2023-03-12T22:16:29.665Z,68.02
2023-03-12T22:18:59.452Z,67.76
2023-03-12T22:21:30.720Z,67.27
2023-03-12T22:24:01.784Z,66.92
2023-03-12T22:26:31.649Z,66.87
2023-03-12T22:29:02.571Z,66.92
2023-03-12T22:31:32.809Z,67.82
2023-03-12T22:34:02.470Z,68.53
2023-03-12T22:36:33.713Z,69.38
2023-03-12T22:39:03.179Z,70.28
2023-03-12T22:41:32.650Z,70.80
2023-03-12T22:44:06.344Z,70.64
2023-03-12T22:46:36.463Z,70.18
2023-03-12T22:49:06.640Z,70.32
2023-03-12T22:51:37.467Z,70.03
2023-03-12T22:54:07.149Z,70.19
2023-03-12T22:56:36.874Z,70.21
2023-03-12T22:59:06.270Z,70.08
2023-03-12T23:01:35.686Z,69.07
2023-03-12T23:04:06.538Z,69.37
2023-03-12T23:06:37.388Z,69.80
2023-03-12T23:09:06.688Z,69.62
2023-03-12T23:11:36.110Z,69.66
2023-03-12T23:14:05.371Z,69.36
2023-03-12T23:16:34.749Z,69.49
2023-03-12T23:19:04.166Z,70.20
2023-03-12T23:21:33.400Z,70.05
2023-03-12T23:24:04.244Z,69.66
2023-03-12T23:26:34.044Z,70.01
2023-03-12T23:29:03.870Z,69.88
2023-03-12T23:31:33.326Z,70.03
2023-03-12T23:34:02.625Z,69.84
2023-03-12T23:36:32.210Z,70.41
2023-03-12T23:39:03.728Z,71.13
2023-03-12T23:41:33.148Z,71.24
2023-03-12T23:44:03.203Z,70.68
2023-03-12T23:46:32.967Z,70.40
2023-03-12T23:49:02.348Z,70.39
2023-03-12T23:51:33.572Z,69.76
2023-03-12T23:54:06.155Z,68.71
2023-03-12T23:56:38.186Z,68.08
2023-03-12T23:59:10.161Z,68.13
